createdAt,value
2022-09-22T00:06:33.226Z,19.12
2022-09-22T00:09:58.309Z,19.23
2022-09-22T00:13:22.251Z,18.95
2022-09-22T00:16:50.220Z,19.03
2022-09-22T00:20:14.298Z,18.63
2022-09-22T00:23:42.288Z,18.64
2022-09-22T00:27:07.250Z,18.48
2022-09-22T00:30:32.307Z,18.44
2022-09-22T00:33:56.231Z,18.38
2022-09-22T00:37:20.344Z,18.62
2022-09-22T00:40:45.331Z,18.67
2022-09-22T00:44:42.260Z,18.59
2022-09-22T00:48:06.279Z,18.97
2022-09-22T00:51:31.306Z,18.56
2022-09-22T00:54:55.280Z,18.25
2022-09-22T00:58:16.901Z,18.45
2022-09-22T01:01:36.379Z,18.48
2022-09-22T01:05:00.239Z,18.33
2022-09-22T01:08:25.329Z,18.86
2022-09-22T01:11:49.323Z,18.95
2022-09-22T01:15:58.333Z,18.76
2022-09-22T01:19:31.316Z,18.61
2022-09-22T01:23:43.294Z,18.73
2022-09-22T01:27:16.337Z,18.33
2022-09-22T01:30:46.346Z,17.95
2022-09-22T01:34:42.335Z,18.29
2022-09-22T01:38:12.252Z,17.63
2022-09-22T01:42:08.355Z,17.94
2022-09-22T01:45:37.305Z,17.88
2022-09-22T01:49:04.353Z,17.45
2022-09-22T01:52:32.381Z,17.59
2022-09-22T01:55:59.342Z,17.58
2022-09-22T01:59:18.904Z,17.22
2022-09-22T02:02:45.519Z,16.93
2022-09-22T02:06:14.321Z,17.03
2022-09-22T02:09:40.347Z,16.97
2022-09-22T02:13:04.323Z,16.97
2022-09-22T02:16:34.421Z,16.79
2022-09-22T02:19:58.425Z,16.61
2022-09-22T02:23:22.433Z,16.46
2022-09-22T02:26:49.322Z,16.31
2022-09-22T02:30:24.346Z,16.25
2022-09-22T02:33:57.333Z,16.25
2022-09-22T02:37:45.336Z,16.04
2022-09-22T02:41:40.421Z,16.25
2022-09-22T02:45:25.390Z,16.12
2022-09-22T02:48:56.433Z,16.12
2022-09-22T02:52:26.434Z,16.06
2022-09-22T02:55:50.328Z,16.02
2022-09-22T02:59:14.422Z,15.87
2022-09-22T03:02:32.005Z,15.98
2022-09-22T03:05:49.409Z,15.87
2022-09-22T03:09:13.334Z,15.71
2022-09-22T03:12:37.385Z,15.78
2022-09-22T03:16:01.406Z,15.66
2022-09-22T03:19:25.405Z,15.57
2022-09-22T03:22:50.334Z,15.63
2022-09-22T03:26:13.386Z,15.61
2022-09-22T03:29:37.320Z,15.52
2022-09-22T03:33:01.334Z,15.49
2022-09-22T03:36:26.348Z,15.24
2022-09-22T03:39:50.394Z,15.18
2022-09-22T03:43:16.712Z,15.04
2022-09-22T03:46:42.341Z,14.93
2022-09-22T03:50:07.318Z,15.08
2022-09-22T03:53:33.492Z,15.19
2022-09-22T03:56:58.373Z,14.95
2022-09-22T04:00:22.395Z,15.11
2022-09-22T04:03:40.966Z,15.13
2022-09-22T04:06:59.133Z,15.16
2022-09-22T04:10:25.375Z,15.13
2022-09-22T04:13:49.347Z,15.11
2022-09-22T04:17:13.368Z,15.14
2022-09-22T04:20:38.352Z,15.17
2022-09-22T04:24:01.333Z,15.24
2022-09-22T04:27:25.438Z,15.32
2022-09-22T04:30:51.437Z,15.16
2022-09-22T04:34:15.430Z,15.21
2022-09-22T04:37:39.348Z,14.90
2022-09-22T04:41:05.414Z,14.96
2022-09-22T04:44:32.127Z,14.92
2022-09-22T04:48:03.408Z,14.93
2022-09-22T04:51:27.387Z,14.96
2022-09-22T04:54:52.438Z,14.90
2022-09-22T04:58:15.365Z,14.91
2022-09-22T05:01:38.450Z,14.87
2022-09-22T05:04:55.965Z,14.91
2022-09-22T05:08:13.393Z,14.86
2022-09-22T05:11:38.385Z,14.88
2022-09-22T05:15:02.379Z,14.78
2022-09-22T05:18:27.418Z,14.79
2022-09-22T05:21:52.401Z,14.76
2022-09-22T05:25:19.397Z,14.74
2022-09-22T05:28:43.366Z,14.74
2022-09-22T05:32:07.428Z,14.74
2022-09-22T05:35:36.879Z,14.70
2022-09-22T05:39:01.347Z,14.63
2022-09-22T05:42:26.444Z,14.58
2022-09-22T05:45:50.436Z,14.47
2022-09-22T05:49:14.397Z,14.46
2022-09-22T05:52:38.349Z,14.44
2022-09-22T05:56:05.442Z,14.49
2022-09-22T05:59:29.358Z,14.39
2022-09-22T06:02:53.476Z,14.39
2022-09-22T06:06:10.960Z,14.33
2022-09-22T06:09:29.400Z,14.37
2022-09-22T06:12:53.419Z,14.36
2022-09-22T06:16:18.453Z,14.32
2022-09-22T06:19:42.388Z,14.30
2022-09-22T06:23:08.413Z,14.24
2022-09-22T06:26:32.392Z,14.29
2022-09-22T06:29:57.411Z,14.32
2022-09-22T06:33:22.429Z,14.23
2022-09-22T06:36:46.412Z,14.12
2022-09-22T06:40:11.884Z,14.19
2022-09-22T06:43:45.421Z,14.21
2022-09-22T06:47:13.374Z,14.18
2022-09-22T06:50:40.416Z,14.20
2022-09-22T06:54:04.428Z,14.22
2022-09-22T06:57:29.456Z,14.23
2022-09-22T07:00:53.458Z,14.24
2022-09-22T07:04:17.475Z,14.19
2022-09-22T07:07:47.722Z,14.24
2022-09-22T07:11:07.458Z,14.20
2022-09-22T07:14:33.469Z,14.15
2022-09-22T07:17:58.391Z,14.23
2022-09-22T07:21:35.472Z,14.12
2022-09-22T07:25:01.463Z,14.16
2022-09-22T07:28:25.482Z,14.16
2022-09-22T07:31:49.475Z,14.10
2022-09-22T07:35:14.571Z,14.05
2022-09-22T07:38:41.458Z,13.94
2022-09-22T07:42:05.472Z,14.06
2022-09-22T07:45:31.457Z,13.93
2022-09-22T07:48:55.437Z,13.97
2022-09-22T07:52:19.579Z,14.05
2022-09-22T07:55:46.397Z,13.92
2022-09-22T07:59:13.489Z,13.94
2022-09-22T08:02:44.454Z,13.95
2022-09-22T08:06:23.892Z,13.78
2022-09-22T08:09:43.034Z,13.76
2022-09-22T08:13:06.455Z,13.76
2022-09-22T08:16:36.517Z,13.75
2022-09-22T08:20:00.502Z,13.79
2022-09-22T08:23:24.469Z,13.73
2022-09-22T08:26:48.515Z,13.71
2022-09-22T08:30:13.479Z,13.67
2022-09-22T08:33:37.470Z,13.89
2022-09-22T08:37:01.528Z,13.72
2022-09-22T08:40:32.516Z,13.88
2022-09-22T08:44:05.516Z,13.71
2022-09-22T08:47:55.457Z,13.79
2022-09-22T08:51:58.441Z,13.73
2022-09-22T08:55:38.487Z,13.62
2022-09-22T08:59:15.445Z,13.62
2022-09-22T09:03:07.600Z,13.55
2022-09-22T09:07:03.469Z,13.54
2022-09-22T09:10:43.460Z,13.47
2022-09-22T09:14:20.503Z,13.34
2022-09-22T09:17:47.450Z,13.27
2022-09-22T09:21:12.533Z,13.17
2022-09-22T09:28:51.485Z,13.14
2022-09-22T09:32:18.496Z,13.15
2022-09-22T09:36:03.563Z,13.01
2022-09-22T09:39:46.442Z,12.99
2022-09-22T09:43:16.484Z,12.98
2022-09-22T09:46:53.443Z,12.98
2022-09-22T09:50:19.491Z,12.96
2022-09-22T09:53:55.455Z,12.92
2022-09-22T09:57:27.870Z,12.96
2022-09-22T10:01:13.507Z,12.87
2022-09-22T10:04:52.479Z,12.93
2022-09-22T10:08:36.486Z,12.87
2022-09-22T10:12:16.535Z,12.85
2022-09-22T10:15:41.553Z,12.81
2022-09-22T10:19:21.449Z,12.77
2022-09-22T10:22:45.504Z,12.73
2022-09-22T10:26:36.497Z,12.71
2022-09-22T10:30:04.498Z,12.69
2022-09-22T10:33:41.709Z,12.61
2022-09-22T10:37:07.549Z,12.56
2022-09-22T10:40:33.603Z,12.59
2022-09-22T10:44:27.363Z,12.59
2022-09-22T10:48:33.493Z,12.52
2022-09-22T10:52:09.549Z,12.55
2022-09-22T10:55:44.549Z,12.58
2022-09-22T10:59:17.507Z,12.55
2022-09-22T11:02:54.515Z,12.51
2022-09-22T11:06:42.517Z,12.52
2022-09-22T11:10:45.511Z,12.54
2022-09-22T11:14:23.860Z,12.51
2022-09-22T11:18:08.508Z,12.49
2022-09-22T11:21:54.476Z,12.52
2022-09-22T11:25:50.579Z,12.54
2022-09-22T11:29:28.483Z,12.54
2022-09-22T11:33:02.573Z,12.58
2022-09-22T11:37:01.535Z,12.58
2022-09-22T11:40:37.812Z,12.60
2022-09-22T11:44:28.530Z,12.63
2022-09-22T11:48:04.525Z,12.61
2022-09-22T11:51:44.505Z,12.61
2022-09-22T11:55:31.568Z,12.58
2022-09-22T11:58:55.503Z,12.62
2022-09-22T12:02:44.598Z,12.65
2022-09-22T12:06:18.530Z,12.67
2022-09-22T12:09:48.525Z,12.62
2022-09-22T12:13:07.073Z,12.60
2022-09-22T12:16:27.519Z,12.62
2022-09-22T12:20:20.659Z,12.53
2022-09-22T12:23:52.525Z,12.50
2022-09-22T12:27:25.552Z,12.49
2022-09-22T12:30:49.688Z,12.51
2022-09-22T12:34:13.556Z,12.44
2022-09-22T12:37:43.568Z,12.46
2022-09-22T12:41:11.518Z,12.46
2022-09-22T12:44:37.549Z,12.49
2022-09-22T12:48:09.781Z,12.46
2022-09-22T12:51:41.556Z,12.45
2022-09-22T12:55:05.554Z,12.43
2022-09-22T12:58:38.717Z,12.43
2022-09-22T13:02:27.553Z,12.45
2022-09-22T13:05:52.594Z,12.50
2022-09-22T13:09:19.549Z,12.49
2022-09-22T13:12:43.566Z,12.50
2022-09-22T13:16:11.640Z,12.54
2022-09-22T13:19:35.553Z,12.63
2022-09-22T13:22:59.628Z,12.57
2022-09-22T13:26:28.604Z,12.48
2022-09-22T13:29:52.593Z,12.52
2022-09-22T13:33:17.562Z,12.44
2022-09-22T13:36:42.567Z,12.46
2022-09-22T13:40:09.589Z,12.46
2022-09-22T13:43:45.613Z,12.48
2022-09-22T13:47:12.560Z,12.40
2022-09-22T13:50:37.612Z,12.48
2022-09-22T13:54:05.566Z,12.47
2022-09-22T13:57:39.588Z,12.41
2022-09-22T14:01:13.414Z,12.46
2022-09-22T14:04:42.580Z,12.35
2022-09-22T14:08:12.009Z,12.38
2022-09-22T14:11:43.601Z,12.41
2022-09-22T14:15:07.591Z,12.46
2022-09-22T14:18:36.592Z,12.44
2022-09-22T14:22:10.629Z,12.45
2022-09-22T14:25:35.550Z,12.48
2022-09-22T14:28:59.591Z,12.50
2022-09-22T14:32:35.595Z,12.57
2022-09-22T14:36:00.593Z,12.49
2022-09-22T14:39:32.536Z,12.49
2022-09-22T14:42:57.636Z,12.50
2022-09-22T14:46:44.595Z,12.49
2022-09-22T14:50:28.583Z,12.54
2022-09-22T14:54:03.570Z,12.49
2022-09-22T14:57:30.583Z,12.54
2022-09-22T15:01:23.609Z,12.54
2022-09-22T15:04:47.632Z,12.50
2022-09-22T15:08:13.371Z,12.51
2022-09-22T15:12:04.396Z,12.53
2022-09-22T15:15:32.074Z,12.60
2022-09-22T15:18:49.404Z,12.53
2022-09-22T15:22:15.381Z,12.52
2022-09-22T15:25:39.443Z,12.49
2022-09-22T15:29:06.429Z,12.50
2022-09-22T15:32:31.409Z,12.51
2022-09-22T15:35:55.439Z,12.49
2022-09-22T15:39:35.430Z,12.50
2022-09-22T15:43:12.720Z,12.55
2022-09-22T15:46:51.675Z,12.49
2022-09-22T15:50:15.592Z,12.53
2022-09-22T15:53:39.746Z,12.54
2022-09-22T15:57:07.626Z,12.50
2022-09-22T16:00:36.724Z,12.51
2022-09-22T16:04:00.670Z,12.46
2022-09-22T16:07:26.760Z,12.43
2022-09-22T16:10:52.638Z,12.44
2022-09-22T16:14:19.678Z,12.49
2022-09-22T16:17:39.649Z,12.50
2022-09-22T16:20:59.690Z,12.51
2022-09-22T16:24:26.611Z,12.52
2022-09-22T16:27:49.651Z,12.46
2022-09-22T16:31:17.682Z,12.51
2022-09-22T16:34:42.685Z,12.54
2022-09-22T16:38:07.637Z,12.56
2022-09-22T16:41:39.698Z,12.50
2022-09-22T16:45:03.627Z,12.48
2022-09-22T16:48:27.689Z,12.55
2022-09-22T16:51:56.702Z,12.55
2022-09-22T16:55:21.668Z,12.49
2022-09-22T16:58:44.660Z,12.51
2022-09-22T17:02:08.687Z,12.59
2022-09-22T17:05:31.662Z,12.61
2022-09-22T17:08:56.661Z,12.47
2022-09-22T17:12:19.709Z,12.42
2022-09-22T17:15:44.718Z,12.47
2022-09-22T17:19:06.245Z,12.42
2022-09-22T17:22:24.708Z,12.47
2022-09-22T17:25:48.687Z,12.48
2022-09-22T17:29:12.709Z,12.41
2022-09-22T17:32:37.675Z,12.39
2022-09-22T17:36:01.671Z,12.43
2022-09-22T17:39:24.661Z,12.43
2022-09-22T17:42:48.634Z,12.41
2022-09-22T17:46:12.741Z,12.46
2022-09-22T17:49:55.652Z,12.45
2022-09-22T17:53:30.667Z,12.43
2022-09-22T17:56:53.652Z,12.50
2022-09-22T18:00:21.758Z,12.48
2022-09-22T18:03:45.640Z,12.50
2022-09-22T18:07:13.707Z,12.53
2022-09-22T18:10:41.650Z,12.49
2022-09-22T18:14:05.780Z,12.59
2022-09-22T18:17:32.686Z,12.56
2022-09-22T18:20:57.668Z,12.70
2022-09-22T18:24:27.686Z,12.65
2022-09-22T18:27:51.649Z,12.59
2022-09-22T18:31:15.734Z,12.63
2022-09-22T18:34:39.708Z,12.62
2022-09-22T18:38:02.660Z,12.65
2022-09-22T18:41:26.711Z,12.67
2022-09-22T18:44:50.689Z,12.82
2022-09-22T18:48:14.707Z,12.93
2022-09-22T18:51:38.657Z,12.76
2022-09-22T18:55:04.739Z,12.80
2022-09-22T18:58:28.697Z,12.89
2022-09-22T19:01:52.751Z,12.93
2022-09-22T19:05:16.689Z,13.00
2022-09-22T19:08:41.700Z,13.05
2022-09-22T19:12:06.678Z,13.23
2022-09-22T19:15:33.762Z,13.32
2022-09-22T19:18:57.721Z,13.40
2022-09-22T19:22:17.317Z,13.54
2022-09-22T19:25:35.693Z,13.55
2022-09-22T19:29:00.745Z,13.53
2022-09-22T19:32:24.668Z,13.87
2022-09-22T19:35:47.706Z,13.86
2022-09-22T19:39:12.714Z,13.79
2022-09-22T19:42:40.054Z,13.79
2022-09-22T19:46:04.710Z,13.75
2022-09-22T19:49:29.704Z,13.76
2022-09-22T19:52:53.739Z,13.87
2022-09-22T19:56:17.718Z,13.85
2022-09-22T19:59:41.765Z,13.91
2022-09-22T20:03:08.739Z,13.86
2022-09-22T20:06:33.772Z,13.97
2022-09-22T20:09:57.677Z,14.14
2022-09-22T20:13:39.767Z,14.15
2022-09-22T20:17:12.727Z,14.18
2022-09-22T20:20:41.763Z,14.23
2022-09-22T20:24:05.679Z,14.38
2022-09-22T20:27:29.894Z,14.57
2022-09-22T20:30:53.746Z,14.66
2022-09-22T20:34:18.741Z,14.93
2022-09-22T20:37:43.733Z,14.79
2022-09-22T20:41:06.861Z,14.96
2022-09-22T20:44:30.734Z,15.04
2022-09-22T20:47:54.728Z,15.38
2022-09-22T20:51:11.705Z,15.83
2022-09-22T20:54:34.773Z,16.16
2022-09-22T20:57:51.770Z,15.72
2022-09-22T21:01:16.797Z,15.68
2022-09-22T21:04:40.681Z,15.68
2022-09-22T21:08:24.778Z,15.52
2022-09-22T21:11:48.760Z,15.25
2022-09-22T21:15:12.771Z,15.08
2022-09-22T21:18:35.786Z,14.91
2022-09-22T21:21:53.343Z,14.89
2022-09-22T21:25:10.821Z,15.11
2022-09-22T21:28:34.761Z,15.10
2022-09-22T21:31:58.758Z,15.31
2022-09-22T21:35:24.754Z,15.41
2022-09-22T21:38:48.752Z,15.40
2022-09-22T21:42:13.784Z,15.59
2022-09-22T21:45:37.717Z,15.44
2022-09-22T21:49:02.806Z,15.73
2022-09-22T21:52:27.715Z,16.96
2022-09-22T21:55:51.802Z,17.20
2022-09-22T21:59:17.779Z,17.49
2022-09-22T22:03:01.749Z,17.56
2022-09-22T22:06:26.803Z,18.23
2022-09-22T22:09:50.767Z,17.77
2022-09-22T22:13:14.765Z,17.13
2022-09-22T22:16:40.771Z,16.84
2022-09-22T22:20:05.774Z,16.62
2022-09-22T22:23:29.806Z,16.89
2022-09-22T22:26:47.766Z,16.90
2022-09-22T22:30:11.760Z,16.73
2022-09-22T22:33:36.759Z,16.97
2022-09-22T22:37:00.794Z,16.86
2022-09-22T22:40:25.860Z,17.57
2022-09-22T22:43:49.741Z,18.38
2022-09-22T22:47:13.807Z,18.05
2022-09-22T22:50:36.795Z,18.26
2022-09-22T22:54:03.759Z,18.16
2022-09-22T22:57:27.781Z,17.99
2022-09-22T23:00:51.737Z,16.88
2022-09-22T23:04:17.808Z,18.07
2022-09-22T23:07:41.792Z,19.83
2022-09-22T23:11:04.792Z,18.58
2022-09-22T23:14:28.799Z,19.16
2022-09-22T23:17:52.788Z,19.42
2022-09-22T23:21:17.822Z,18.84
2022-09-22T23:24:41.794Z,18.67
2022-09-22T23:28:09.796Z,18.42
2022-09-22T23:31:34.811Z,20.17
2022-09-22T23:34:58.817Z,19.53
2022-09-22T23:38:22.792Z,19.15
2022-09-22T23:41:50.781Z,18.73
2022-09-22T23:45:15.799Z,19.37
2022-09-22T23:48:39.770Z,18.85
2022-09-22T23:52:03.844Z,18.50
2022-09-22T23:55:26.828Z,19.37
2022-09-22T23:58:53.814Z,18.64
